Погода Кожевняна 2 недели

Тверская область, Россия

24 мая-06 июня
  • 24мая
    Сегодня
    +8°
    +23°
    Облачно с прояснениями
    ВремяПогодаТемператураВлажностьДавлениеВетер, м/сВероятность осадков
    00:00Небольшая облачность+8°C52 %762 мм0.3 м/с2 %
    03:00Ясно и безоблачно+5°C68 %763 мм0.6 м/с2 %
    06:00Ясно и безоблачно+9°C69 %763 мм1.0 м/с2 %
    09:00Практически безоблачно+17°C53 %764 мм1.3 м/с2 %
    12:00Ясно и безоблачно+21°C37 %763 мм1.6 м/с2 %
    15:00Облачно с прояснениями+22°C36 %763 мм1.7 м/с2 %
    18:00Ясно и безоблачно+22°C35 %762 мм1.5 м/с2 %
    21:00Ясно и безоблачно+15°C54 %762 мм0.5 м/с2 %
  • 25мая
    Суббота
    +10°
    +23°
    Ясно и безоблачно
    ВремяПогодаТемператураВлажностьДавлениеВетер, м/сВероятность осадков
    00:00Ясно и безоблачно+10°C60 %761 мм0.7 м/с2 %
    03:00Ясно и безоблачно+8°C72 %762 мм0.7 м/с2 %
    06:00Ясно и безоблачно+11°C69 %762 мм1.2 м/с2 %
    09:00Ясно и безоблачно+19°C49 %761 мм1.8 м/с2 %
    12:00Ясно и безоблачно+22°C34 %760 мм2.5 м/с2 %
    15:00Ясно и безоблачно+22°C28 %759 мм2.7 м/с2 %
    18:00Ясно и безоблачно+22°C32 %758 мм2.2 м/с2 %
    21:00Ясно и безоблачно+16°C50 %757 мм0.7 м/с2 %
  • 26мая
    Воскресенье
    +6°
    +20°
    Облачно с прояснениями
    ВремяПогодаТемператураВлажностьДавлениеВетер, м/сВероятность осадков
    00:00Ясно и безоблачно+12°C59 %756 мм1.0 м/с2 %
    03:00Ясно и безоблачно+11°C67 %756 мм0.9 м/с2 %
    06:00Практически безоблачно+13°C74 %757 мм0.9 м/с16 %
    09:00Облачно с прояснениями, ливень+17°C79 %758 мм1.1 м/с31 %
    12:00Облачно с прояснениями+19°C51 %758 мм1.9 м/с35 %
    15:00Облачно с прояснениями+19°C37 %758 мм2.3 м/с23 %
    18:00Облачно с прояснениями+19°C35 %759 мм2.1 м/с9 %
    21:00Практически безоблачно+13°C52 %759 мм0.7 м/с2 %
  • 27мая
    Понедельник
    +7°
    +21°
    Практически безоблачно
    ВремяПогодаТемператураВлажностьДавлениеВетер, м/сВероятность осадков
    00:00Ясно и безоблачно+9°C65 %760 мм0.8 м/с2 %
    03:00Ясно и безоблачно+7°C61 %761 мм0.5 м/с2 %
    06:00Ясно и безоблачно+8°C58 %762 мм0.8 м/с2 %
    09:00Ясно и безоблачно+16°C41 %762 мм1.2 м/с2 %
    12:00Практически безоблачно+19°C35 %761 мм1.4 м/с2 %
    15:00Практически безоблачно+20°C32 %760 мм1.2 м/с2 %
    18:00Небольшая облачность+21°C35 %759 мм1.0 м/с2 %
    21:00Ясно и безоблачно+14°C58 %759 мм0.1 м/с2 %
  • 28мая
    Вторник
    +9°
    +25°
    Ясно и безоблачно
    ВремяПогодаТемператураВлажностьДавлениеВетер, м/сВероятность осадков
    00:00Ясно и безоблачно+10°C65 %759 мм0.6 м/с2 %
    03:00Ясно и безоблачно+8°C70 %759 мм0.5 м/с2 %
    06:00Ясно и безоблачно+11°C70 %759 мм0.8 м/с2 %
    09:00Ясно и безоблачно+20°C55 %758 мм1.1 м/с2 %
    12:00Ясно и безоблачно+24°C40 %758 мм1.4 м/с6 %
    15:00Ясно и безоблачно+24°C33 %757 мм1.4 м/с2 %
    18:00Ясно и безоблачно+24°C35 %756 мм1.3 м/с2 %
    21:00Ясно и безоблачно+18°C44 %756 мм0.0 м/с2 %
Мы используем cookies
Соглашаюсь